createdAt,value
2022-08-23T00:01:21.305Z,3.07
2022-08-23T00:03:52.825Z,3.00
2022-08-23T00:06:22.019Z,2.80
2022-08-23T00:08:50.372Z,3.10
2022-08-23T00:11:29.957Z,3.20
2022-08-23T00:13:58.505Z,2.77
2022-08-23T00:16:27.753Z,3.00
2022-08-23T00:18:55.828Z,2.80
2022-08-23T00:21:24.352Z,2.50
2022-08-23T00:23:52.008Z,3.03
2022-08-23T00:26:20.767Z,2.83
2022-08-23T00:28:49.705Z,2.90
2022-08-23T00:31:17.524Z,2.83
2022-08-23T00:33:46.729Z,3.43
2022-08-23T00:36:14.415Z,2.93
2022-08-23T00:38:41.956Z,3.03
2022-08-23T00:41:09.869Z,3.57
2022-08-23T00:43:58.033Z,3.30
2022-08-23T00:46:59.062Z,3.13
2022-08-23T00:49:29.152Z,2.30
2022-08-23T00:52:02.188Z,2.93
2022-08-23T00:54:31.990Z,3.60
2022-08-23T00:57:03.565Z,2.97
2022-08-23T00:59:31.160Z,3.00
2022-08-23T01:01:59.577Z,2.80
2022-08-23T01:04:34.298Z,3.07
2022-08-23T01:07:10.944Z,2.90
2022-08-23T01:09:40.421Z,2.90
2022-08-23T01:12:15.014Z,3.27
2022-08-23T01:14:48.288Z,3.00
2022-08-23T01:17:21.872Z,2.53
2022-08-23T01:19:54.362Z,3.73
2022-08-23T01:22:28.958Z,3.50
2022-08-23T01:25:07.741Z,4.80
2022-08-23T01:27:43.232Z,3.40
2022-08-23T01:30:16.967Z,2.53
2022-08-23T01:32:48.896Z,2.80
2022-08-23T01:35:17.535Z,3.33
2022-08-23T01:37:46.042Z,2.60
2022-08-23T01:40:16.099Z,2.80
2022-08-23T01:42:44.811Z,3.00
2022-08-23T01:45:15.272Z,3.13
2022-08-23T01:47:43.626Z,3.87
2022-08-23T01:50:13.022Z,3.10
2022-08-23T01:52:46.708Z,3.07
2022-08-23T01:55:17.747Z,2.73
2022-08-23T01:57:46.375Z,2.80
2022-08-23T02:00:17.234Z,3.30
2022-08-23T02:02:46.989Z,3.40
2022-08-23T02:05:17.438Z,3.50
2022-08-23T02:07:47.231Z,3.93
2022-08-23T02:10:15.306Z,3.17
2022-08-23T02:12:44.450Z,3.20
2022-08-23T02:15:16.917Z,4.20
2022-08-23T02:17:47.764Z,3.10
2022-08-23T02:20:15.453Z,4.00
2022-08-23T02:22:43.374Z,3.00
2022-08-23T02:25:11.307Z,2.70
2022-08-23T02:27:44.134Z,3.93
2022-08-23T02:30:15.200Z,3.00
2022-08-23T02:32:43.546Z,3.33
2022-08-23T02:37:58.106Z,3.40
2022-08-23T02:40:25.785Z,4.10
2022-08-23T02:42:53.556Z,2.70
2022-08-23T02:45:24.061Z,3.17
2022-08-23T02:47:51.678Z,3.30
2022-08-23T02:50:25.027Z,3.33
2022-08-23T02:52:53.612Z,2.50
2022-08-23T02:55:22.064Z,3.30
2022-08-23T02:57:49.797Z,3.10
2022-08-23T03:00:19.436Z,3.10
2022-08-23T03:02:48.488Z,2.90
2022-08-23T03:05:17.732Z,3.33
2022-08-23T03:07:45.932Z,3.27
2022-08-23T03:10:16.969Z,2.93
2022-08-23T03:12:51.657Z,2.67
2022-08-23T03:15:20.073Z,2.93
2022-08-23T03:17:49.928Z,3.37
2022-08-23T03:20:17.789Z,3.27
2022-08-23T03:22:54.763Z,3.10
2022-08-23T03:25:25.955Z,2.90
2022-08-23T03:28:04.649Z,2.87
2022-08-23T03:30:33.851Z,3.00
2022-08-23T03:33:02.955Z,3.00
2022-08-23T03:35:31.713Z,2.77
2022-08-23T03:37:59.998Z,3.50
2022-08-23T03:40:27.570Z,3.33
2022-08-23T03:42:55.165Z,3.50
2022-08-23T03:45:25.395Z,4.10
2022-08-23T03:47:52.873Z,3.20
2022-08-23T03:50:22.033Z,3.10
2022-08-23T03:52:49.916Z,3.47
2022-08-23T03:55:17.679Z,3.63
2022-08-23T03:57:49.618Z,3.67
2022-08-23T04:00:20.646Z,3.30
2022-08-23T04:02:50.793Z,3.30
2022-08-23T04:05:18.785Z,3.50
2022-08-23T04:08:01.510Z,3.47
2022-08-23T04:10:29.471Z,3.30
2022-08-23T04:12:57.381Z,3.70
2022-08-23T04:15:25.028Z,3.10
2022-08-23T04:17:53.115Z,3.33
2022-08-23T04:20:22.129Z,3.20
2022-08-23T04:22:55.759Z,2.90
2022-08-23T04:25:34.730Z,3.37
2022-08-23T04:28:04.666Z,3.60
2022-08-23T04:30:34.200Z,3.13
2022-08-23T04:33:03.695Z,3.30
2022-08-23T04:35:38.371Z,3.60
2022-08-23T04:38:18.391Z,4.27
2022-08-23T04:41:14.490Z,4.13
2022-08-23T04:43:43.943Z,3.77
2022-08-23T04:46:14.580Z,3.83
2022-08-23T04:48:43.074Z,4.37
2022-08-23T04:51:10.746Z,3.90
2022-08-23T04:53:40.769Z,3.97
2022-08-23T04:56:29.546Z,3.67
2022-08-23T04:58:57.903Z,4.97
2022-08-23T05:01:26.756Z,4.30
2022-08-23T05:03:55.811Z,4.20
2022-08-23T05:06:25.840Z,3.47
2022-08-23T05:08:53.585Z,3.50
2022-08-23T05:11:21.517Z,3.60
2022-08-23T05:13:51.728Z,3.90
2022-08-23T05:16:20.757Z,4.70
2022-08-23T05:19:00.229Z,3.80
2022-08-23T05:21:27.842Z,3.83
2022-08-23T05:23:58.161Z,3.63
2022-08-23T05:26:30.942Z,4.57
2022-08-23T05:28:59.904Z,3.20
2022-08-23T05:31:34.419Z,3.33
2022-08-23T05:34:04.909Z,4.40
2022-08-23T05:36:55.449Z,4.23
2022-08-23T05:39:36.487Z,3.83
2022-08-23T05:42:12.758Z,3.40
2022-08-23T05:44:43.327Z,3.43
2022-08-23T05:47:15.190Z,3.53
2022-08-23T05:49:56.740Z,3.53
2022-08-23T05:52:26.122Z,3.40
2022-08-23T05:54:53.624Z,3.80
2022-08-23T05:57:39.810Z,3.77
2022-08-23T06:00:13.419Z,3.97
2022-08-23T06:02:46.719Z,4.27
2022-08-23T06:05:14.822Z,3.97
2022-08-23T06:07:43.593Z,4.20
2022-08-23T06:10:16.272Z,3.43
2022-08-23T06:12:48.832Z,3.80
2022-08-23T06:15:18.260Z,4.10
2022-08-23T06:17:45.773Z,4.13
2022-08-23T06:20:15.737Z,4.13
2022-08-23T06:23:01.313Z,4.30
2022-08-23T06:25:29.894Z,4.80
2022-08-23T06:28:06.725Z,5.10
2022-08-23T06:30:39.556Z,4.67
2022-08-23T06:33:24.569Z,4.60
2022-08-23T06:36:18.460Z,3.90
2022-08-23T06:39:05.339Z,4.83
2022-08-23T06:41:49.496Z,4.70
2022-08-23T06:44:27.900Z,4.73
2022-08-23T06:47:07.413Z,4.70
2022-08-23T06:49:35.221Z,4.90
2022-08-23T06:52:04.211Z,3.80
2022-08-23T06:54:44.223Z,3.83
2022-08-23T06:57:34.310Z,4.07
2022-08-23T07:00:25.251Z,4.83
2022-08-23T07:03:19.068Z,4.50
2022-08-23T07:06:05.145Z,4.10
2022-08-23T07:08:35.401Z,4.30
2022-08-23T07:11:02.976Z,4.40
2022-08-23T07:13:31.129Z,3.97
2022-08-23T07:15:59.976Z,4.57
2022-08-23T07:18:30.317Z,5.00
2022-08-23T07:20:58.753Z,3.60
2022-08-23T07:23:27.145Z,5.03
2022-08-23T07:25:55.475Z,3.53
2022-08-23T07:28:26.237Z,4.70
2022-08-23T07:30:55.032Z,4.20
2022-08-23T07:33:23.309Z,3.80
2022-08-23T07:36:08.734Z,3.93
2022-08-23T07:38:37.239Z,3.43
2022-08-23T07:41:05.623Z,3.20
2022-08-23T07:43:34.385Z,3.27
2022-08-23T07:46:04.314Z,3.60
2022-08-23T07:48:52.940Z,3.40
2022-08-23T07:51:25.635Z,3.67
2022-08-23T07:53:53.563Z,3.63
2022-08-23T07:56:22.722Z,3.93
2022-08-23T07:59:01.374Z,3.77
2022-08-23T08:01:35.636Z,3.30
2022-08-23T08:04:04.926Z,3.10
2022-08-23T08:06:39.904Z,3.00
2022-08-23T08:09:08.209Z,2.60
2022-08-23T08:11:36.430Z,2.60
2022-08-23T08:14:08.190Z,2.77
2022-08-23T08:16:40.718Z,2.90
2022-08-23T08:19:12.098Z,3.07
2022-08-23T08:21:59.971Z,3.43
2022-08-23T08:24:46.291Z,3.20
2022-08-23T08:27:14.571Z,2.90
2022-08-23T08:29:43.869Z,2.83
2022-08-23T08:32:13.674Z,2.37
2022-08-23T08:34:42.488Z,2.80
2022-08-23T08:37:12.849Z,2.60
2022-08-23T08:39:45.468Z,2.50
2022-08-23T08:42:27.745Z,1.93
2022-08-23T08:45:06.421Z,2.37
2022-08-23T08:47:50.207Z,2.37
2022-08-23T08:50:26.429Z,1.80
2022-08-23T08:53:03.679Z,2.00
2022-08-23T08:55:54.395Z,1.50
2022-08-23T08:58:27.894Z,1.77
2022-08-23T09:00:56.630Z,1.53
2022-08-23T09:03:26.011Z,1.20
2022-08-23T09:05:58.562Z,1.60
2022-08-23T09:08:45.379Z,1.57
2022-08-23T09:11:23.269Z,1.30
2022-08-23T09:14:17.881Z,1.73
2022-08-23T09:16:52.399Z,1.87
2022-08-23T09:19:23.480Z,1.40
2022-08-23T09:21:58.581Z,1.47
2022-08-23T09:24:28.969Z,1.50
2022-08-23T09:27:12.680Z,1.27
2022-08-23T09:29:52.153Z,1.30
2022-08-23T09:32:29.815Z,1.70
2022-08-23T09:35:09.150Z,1.00
2022-08-23T09:37:51.989Z,1.53
2022-08-23T09:40:26.845Z,1.60
2022-08-23T09:43:19.731Z,1.10
2022-08-23T09:46:00.953Z,1.20
2022-08-23T09:48:38.292Z,1.30
2022-08-23T09:51:12.557Z,1.40
2022-08-23T09:53:49.443Z,1.57
2022-08-23T09:56:24.536Z,1.33
2022-08-23T09:58:54.423Z,1.57
2022-08-23T10:01:49.078Z,1.60
2022-08-23T10:04:22.926Z,2.00
2022-08-23T10:06:52.988Z,2.03
2022-08-23T10:09:27.632Z,1.50
2022-08-23T10:11:58.021Z,1.57
2022-08-23T10:14:30.744Z,1.60
2022-08-23T10:17:19.834Z,1.17
2022-08-23T10:19:55.437Z,2.03
2022-08-23T10:22:26.151Z,1.60
2022-08-23T10:25:17.953Z,2.30
2022-08-23T10:28:13.536Z,2.10
2022-08-23T10:30:52.651Z,1.97
2022-08-23T10:33:27.459Z,1.30
2022-08-23T10:36:04.862Z,1.80
2022-08-23T10:38:38.771Z,1.50
2022-08-23T10:41:25.327Z,2.10
2022-08-23T10:44:14.383Z,1.40
2022-08-23T10:46:54.970Z,1.40
2022-08-23T10:49:23.583Z,1.63
2022-08-23T10:51:51.978Z,1.67
2022-08-23T10:54:35.080Z,1.57
2022-08-23T10:57:07.469Z,1.50
2022-08-23T10:59:38.541Z,1.33
2022-08-23T11:02:15.359Z,1.30
2022-08-23T11:04:53.058Z,1.70
2022-08-23T11:07:28.948Z,1.50
2022-08-23T11:10:16.749Z,1.50
2022-08-23T11:12:55.383Z,1.70
2022-08-23T11:15:32.964Z,1.43
2022-08-23T11:18:05.003Z,1.20
2022-08-23T11:20:59.558Z,1.83
2022-08-23T11:23:42.631Z,1.70
2022-08-23T11:26:31.416Z,1.40
2022-08-23T11:29:30.304Z,1.20
2022-08-23T11:32:39.832Z,1.60
2022-08-23T11:35:32.879Z,1.47
2022-08-23T11:38:05.215Z,1.50
2022-08-23T11:40:57.968Z,1.50
2022-08-23T11:43:34.448Z,1.30
2022-08-23T11:46:34.781Z,2.10
2022-08-23T11:49:44.014Z,1.30
2022-08-23T11:52:25.584Z,1.50
2022-08-23T11:55:18.440Z,1.43
2022-08-23T11:57:57.769Z,1.70
2022-08-23T12:00:29.729Z,1.90
2022-08-23T12:03:02.273Z,1.40
2022-08-23T12:05:58.161Z,2.10
2022-08-23T12:08:31.360Z,1.20
2022-08-23T12:11:07.497Z,1.60
2022-08-23T12:13:51.487Z,1.27
2022-08-23T12:16:44.218Z,1.57
2022-08-23T12:19:29.350Z,1.30
2022-08-23T12:22:06.414Z,1.70
2022-08-23T12:24:43.365Z,1.70
2022-08-23T12:27:25.936Z,1.57
2022-08-23T12:30:02.679Z,1.53
2022-08-23T12:32:42.300Z,1.30
2022-08-23T12:35:31.814Z,1.53
2022-08-23T12:38:15.682Z,1.80
2022-08-23T12:40:46.538Z,1.40
2022-08-23T12:43:22.666Z,1.60
2022-08-23T12:45:52.874Z,1.50
2022-08-23T12:48:23.191Z,1.10
2022-08-23T12:50:56.379Z,1.50
2022-08-23T12:53:30.223Z,1.50
2022-08-23T12:56:03.055Z,1.50
2022-08-23T12:58:33.826Z,1.90
2022-08-23T13:01:05.995Z,1.33
2022-08-23T13:03:38.715Z,1.23
2022-08-23T13:06:10.718Z,1.47
2022-08-23T13:08:45.659Z,1.87
2022-08-23T13:11:18.805Z,1.50
2022-08-23T13:13:46.690Z,1.70
2022-08-23T13:16:28.219Z,1.90
2022-08-23T13:18:56.705Z,1.87
2022-08-23T13:21:34.124Z,1.50
2022-08-23T13:24:37.769Z,1.60
2022-08-23T13:27:21.829Z,2.20
2022-08-23T13:29:56.066Z,1.93
2022-08-23T13:32:37.225Z,2.00
2022-08-23T13:35:34.174Z,1.70
2022-08-23T13:38:10.244Z,1.83
2022-08-23T13:40:46.747Z,1.40
2022-08-23T13:43:20.962Z,1.60
2022-08-23T13:45:51.819Z,1.97
2022-08-23T13:48:22.377Z,1.97
2022-08-23T13:50:50.356Z,1.70
2022-08-23T13:53:19.201Z,1.53
2022-08-23T13:55:52.471Z,1.53
2022-08-23T13:58:28.910Z,1.80
2022-08-23T14:00:58.850Z,1.70
2022-08-23T14:03:29.054Z,1.57
2022-08-23T14:05:56.672Z,2.00
2022-08-23T14:08:24.425Z,1.77
2022-08-23T14:10:53.388Z,2.00
2022-08-23T14:13:24.036Z,1.97
2022-08-23T14:15:57.803Z,1.70
2022-08-23T14:18:26.912Z,1.40
2022-08-23T14:20:54.504Z,1.47
2022-08-23T14:23:22.135Z,1.70
2022-08-23T14:25:52.553Z,1.97
2022-08-23T14:28:22.696Z,1.40
2022-08-23T14:30:52.266Z,1.60
2022-08-23T14:33:21.617Z,1.63
2022-08-23T14:35:49.247Z,1.33
2022-08-23T14:38:18.079Z,1.73
2022-08-23T14:40:52.643Z,2.03
2022-08-23T14:43:22.740Z,1.37
2022-08-23T14:45:54.862Z,1.30
2022-08-23T14:48:25.179Z,1.37
2022-08-23T14:50:53.433Z,1.27
2022-08-23T14:53:24.397Z,1.80
2022-08-23T14:56:12.305Z,1.40
2022-08-23T14:58:44.470Z,1.60
2022-08-23T15:01:13.669Z,1.70
2022-08-23T15:03:42.780Z,1.73
2022-08-23T15:06:10.490Z,1.57
2022-08-23T15:08:38.208Z,1.83
2022-08-23T15:13:59.971Z,1.37
2022-08-23T15:16:28.167Z,1.70
2022-08-23T15:18:57.014Z,4.40
2022-08-23T15:21:24.771Z,2.13
2022-08-23T15:23:52.366Z,3.50
2022-08-23T15:26:22.535Z,2.30
2022-08-23T15:28:50.337Z,1.60
2022-08-23T15:31:20.793Z,1.30
2022-08-23T15:33:49.038Z,1.43
2022-08-23T15:36:17.763Z,1.90
2022-08-23T15:38:48.701Z,1.60
2022-08-23T15:41:17.045Z,1.80
2022-08-23T15:43:45.163Z,1.67
2022-08-23T15:46:20.137Z,2.23
2022-08-23T15:48:51.958Z,2.00
2022-08-23T15:51:20.110Z,1.60
2022-08-23T15:53:48.448Z,1.50
2022-08-23T15:56:19.837Z,1.93
2022-08-23T15:58:48.361Z,1.30
2022-08-23T16:01:19.882Z,2.37
2022-08-23T16:03:52.161Z,1.40
2022-08-23T16:06:19.760Z,1.50
2022-08-23T16:08:52.372Z,1.80
2022-08-23T16:11:20.683Z,1.50
2022-08-23T16:13:49.730Z,1.40
2022-08-23T16:16:24.532Z,1.23
2022-08-23T16:18:54.768Z,1.60
2022-08-23T16:21:22.998Z,1.50
2022-08-23T16:23:51.139Z,1.60
2022-08-23T16:26:22.306Z,1.63
2022-08-23T16:28:53.255Z,1.80
2022-08-23T16:31:21.172Z,1.60
2022-08-23T16:34:08.543Z,1.67
2022-08-23T16:36:36.043Z,1.67
2022-08-23T16:39:03.676Z,2.10
2022-08-23T16:41:31.167Z,1.70
2022-08-23T16:43:58.681Z,3.40
2022-08-23T16:46:28.768Z,1.77
2022-08-23T16:48:56.398Z,1.60
2022-08-23T16:51:35.682Z,1.67
2022-08-23T16:54:08.718Z,1.70
2022-08-23T16:56:38.503Z,1.43
2022-08-23T16:59:08.281Z,1.60
2022-08-23T17:01:46.061Z,1.60
2022-08-23T17:04:13.906Z,1.43
2022-08-23T17:06:43.188Z,1.30
2022-08-23T17:09:11.395Z,1.77
2022-08-23T17:11:40.079Z,1.50
2022-08-23T17:14:08.631Z,1.70
2022-08-23T17:16:36.649Z,1.90
2022-08-23T17:19:04.634Z,1.77
2022-08-23T17:21:32.305Z,1.63
2022-08-23T17:24:01.485Z,1.60
2022-08-23T17:26:29.416Z,1.60
2022-08-23T17:28:57.368Z,1.90
2022-08-23T17:31:26.961Z,1.70
2022-08-23T17:33:54.904Z,1.40
2022-08-23T17:36:33.638Z,1.90
2022-08-23T17:39:04.813Z,1.87
2022-08-23T17:41:35.234Z,1.30
2022-08-23T17:44:03.503Z,1.73
2022-08-23T17:46:35.791Z,1.47
2022-08-23T17:49:03.530Z,1.97
2022-08-23T17:51:31.215Z,2.07
2022-08-23T17:53:58.735Z,1.90
2022-08-23T17:56:27.744Z,1.60
2022-08-23T17:58:55.338Z,2.13
2022-08-23T18:01:22.930Z,1.87
2022-08-23T18:03:51.212Z,2.17
2022-08-23T18:06:18.818Z,1.70
2022-08-23T18:08:47.154Z,1.83
2022-08-23T18:11:15.583Z,1.80
2022-08-23T18:13:45.508Z,3.07
2022-08-23T18:16:13.842Z,2.60
2022-08-23T18:18:41.649Z,2.40
2022-08-23T18:21:12.589Z,2.23
2022-08-23T18:23:40.598Z,2.83
2022-08-23T18:26:30.759Z,2.50
2022-08-23T18:28:58.957Z,4.00
2022-08-23T18:31:27.466Z,4.60
2022-08-23T18:34:00.159Z,3.30
2022-08-23T18:36:28.864Z,2.20
2022-08-23T18:38:58.436Z,2.20
2022-08-23T18:41:28.793Z,2.60
2022-08-23T18:43:56.364Z,2.93
2022-08-23T18:46:31.715Z,2.40
2022-08-23T18:49:00.960Z,2.20
2022-08-23T18:51:28.567Z,1.83
2022-08-23T18:53:56.421Z,2.83
2022-08-23T18:56:24.007Z,2.67
2022-08-23T18:58:51.568Z,2.47
2022-08-23T19:01:24.260Z,2.90
2022-08-23T19:03:54.182Z,2.67
2022-08-23T19:06:21.769Z,3.20
2022-08-23T19:08:49.486Z,3.50
2022-08-23T19:11:51.212Z,3.70
2022-08-23T19:14:19.261Z,4.30
2022-08-23T19:16:48.448Z,3.53
2022-08-23T19:19:19.293Z,2.97
2022-08-23T19:21:46.973Z,2.43
2022-08-23T19:24:14.790Z,2.50
2022-08-23T19:26:47.221Z,2.00
2022-08-23T19:29:15.965Z,1.93
2022-08-23T19:31:46.604Z,1.90
2022-08-23T19:34:15.213Z,1.83
2022-08-23T19:36:46.943Z,1.90
2022-08-23T19:39:16.885Z,2.20
2022-08-23T19:41:46.226Z,2.50
2022-08-23T19:44:13.703Z,2.27
2022-08-23T19:46:46.704Z,2.20
2022-08-23T19:49:15.176Z,1.60
2022-08-23T19:51:44.852Z,2.17
2022-08-23T19:54:13.568Z,2.23
2022-08-23T19:56:44.691Z,1.97
2022-08-23T19:59:18.177Z,1.87
2022-08-23T20:01:45.929Z,1.70
2022-08-23T20:04:13.458Z,1.93
2022-08-23T20:06:41.294Z,2.40
2022-08-23T20:09:11.488Z,1.80
2022-08-23T20:11:39.596Z,2.20
2022-08-23T20:14:08.131Z,1.90
2022-08-23T20:16:36.587Z,1.77
2022-08-23T20:19:06.754Z,1.73
2022-08-23T20:21:34.337Z,1.73
2022-08-23T20:24:00.947Z,1.80
2022-08-23T20:26:30.577Z,1.80
2022-08-23T20:28:59.738Z,1.90
2022-08-23T20:31:30.189Z,1.70
2022-08-23T20:33:58.555Z,1.80
2022-08-23T20:36:28.022Z,2.10
2022-08-23T20:38:57.990Z,2.30
2022-08-23T20:41:26.229Z,1.90
2022-08-23T20:43:56.710Z,1.80
2022-08-23T20:46:24.542Z,2.67
2022-08-23T20:48:52.690Z,1.83
2022-08-23T20:51:21.417Z,1.80
2022-08-23T20:53:49.031Z,2.00
2022-08-23T20:56:17.533Z,2.20
2022-08-23T20:58:48.536Z,2.43
2022-08-23T21:01:18.500Z,1.83
2022-08-23T21:03:46.732Z,2.00
2022-08-23T21:06:19.943Z,2.03
2022-08-23T21:08:49.395Z,1.90
2022-08-23T21:11:17.453Z,2.00
2022-08-23T21:13:45.293Z,2.07
2022-08-23T21:16:14.160Z,1.80
2022-08-23T21:18:44.340Z,1.80
2022-08-23T21:21:13.483Z,2.10
2022-08-23T21:23:41.662Z,2.33
2022-08-23T21:26:10.039Z,2.37
2022-08-23T21:28:38.066Z,2.30
2022-08-23T21:31:09.755Z,2.20
2022-08-23T21:33:40.201Z,1.53
2022-08-23T21:36:10.244Z,2.27
2022-08-23T21:38:38.185Z,2.93
2022-08-23T21:41:09.569Z,2.80
2022-08-23T21:43:38.239Z,2.10
2022-08-23T21:46:09.965Z,2.20
2022-08-23T21:48:37.481Z,1.73
2022-08-23T21:51:05.125Z,2.33
2022-08-23T21:53:34.241Z,2.00
2022-08-23T21:56:02.417Z,2.10
2022-08-23T21:58:30.239Z,2.17
2022-08-23T22:00:58.478Z,1.80
2022-08-23T22:03:27.303Z,2.17
2022-08-23T22:05:55.860Z,2.40
2022-08-23T22:08:23.699Z,2.13
2022-08-23T22:10:58.192Z,2.20
2022-08-23T22:13:27.022Z,2.37
2022-08-23T22:15:54.736Z,2.20
2022-08-23T22:18:22.781Z,1.90
2022-08-23T22:20:50.442Z,2.53
2022-08-23T22:23:18.229Z,2.40
2022-08-23T22:25:45.949Z,1.80
2022-08-23T22:28:15.154Z,2.00
2022-08-23T22:30:43.663Z,1.87
2022-08-23T22:33:12.952Z,2.67
2022-08-23T22:35:40.677Z,2.07
2022-08-23T22:38:14.041Z,2.10
2022-08-23T22:40:48.589Z,2.50
2022-08-23T22:43:18.117Z,2.40
2022-08-23T22:45:53.609Z,2.20
2022-08-23T22:48:21.763Z,2.17
2022-08-23T22:50:50.156Z,2.10
2022-08-23T22:53:19.749Z,2.20
2022-08-23T22:55:51.434Z,2.50
2022-08-23T22:58:20.385Z,2.77
2022-08-23T23:00:48.091Z,2.20
2022-08-23T23:03:15.878Z,2.00
2022-08-23T23:05:43.980Z,2.30
2022-08-23T23:08:30.254Z,2.30
2022-08-23T23:11:01.143Z,2.27
2022-08-23T23:13:31.581Z,2.27
2022-08-23T23:16:02.653Z,2.00
2022-08-23T23:18:30.514Z,2.70
2022-08-23T23:20:59.507Z,2.00
2022-08-23T23:23:28.242Z,2.37
2022-08-23T23:25:56.267Z,1.90
2022-08-23T23:28:23.844Z,2.10
2022-08-23T23:30:55.578Z,1.90
2022-08-23T23:33:23.375Z,2.23
2022-08-23T23:35:52.575Z,2.30
2022-08-23T23:38:20.122Z,1.97
2022-08-23T23:40:47.668Z,2.43
2022-08-23T23:43:15.308Z,2.33
2022-08-23T23:45:42.984Z,1.90
2022-08-23T23:48:12.629Z,2.67
2022-08-23T23:50:46.623Z,2.13
2022-08-23T23:53:14.732Z,1.70
2022-08-23T23:55:42.519Z,2.10
2022-08-23T23:58:10.425Z,2.60
